sensor_id;sensor_type;location;lat;lon;timestamp;temperature;humidity
51476;DHT22;37554;50.362;7.568;2022-07-29T00:02:13;25.10;47.00
51476;DHT22;37554;50.362;7.568;2022-07-29T00:04:39;25.10;47.10
51476;DHT22;37554;50.362;7.568;2022-07-29T00:07:04;25.00;47.10
51476;DHT22;37554;50.362;7.568;2022-07-29T00:09:31;25.00;47.10
51476;DHT22;37554;50.362;7.568;2022-07-29T00:11:59;25.00;47.10
51476;DHT22;37554;50.362;7.568;2022-07-29T00:14:25;25.00;47.20
51476;DHT22;37554;50.362;7.568;2022-07-29T00:16:51;25.00;47.20
51476;DHT22;37554;50.362;7.568;2022-07-29T00:19:16;25.00;47.20
51476;DHT22;37554;50.362;7.568;2022-07-29T00:21:42;25.00;47.30
51476;DHT22;37554;50.362;7.568;2022-07-29T00:24:08;25.00;47.30
51476;DHT22;37554;50.362;7.568;2022-07-29T00:26:34;24.90;47.30
51476;DHT22;37554;50.362;7.568;2022-07-29T00:29:00;24.90;47.30
51476;DHT22;37554;50.362;7.568;2022-07-29T00:31:26;24.90;47.30
51476;DHT22;37554;50.362;7.568;2022-07-29T00:33:52;24.90;47.40
51476;DHT22;37554;50.362;7.568;2022-07-29T00:36:17;24.90;47.40
51476;DHT22;37554;50.362;7.568;2022-07-29T00:38:43;24.90;47.50
51476;DHT22;37554;50.362;7.568;2022-07-29T00:41:11;24.90;47.60
51476;DHT22;37554;50.362;7.568;2022-07-29T00:43:37;24.90;47.60
51476;DHT22;37554;50.362;7.568;2022-07-29T00:46:03;24.90;47.60
51476;DHT22;37554;50.362;7.568;2022-07-29T00:48:28;24.90;47.70
51476;DHT22;37554;50.362;7.568;2022-07-29T00:50:55;24.80;47.70
51476;DHT22;37554;50.362;7.568;2022-07-29T00:53:22;24.80;47.80
51476;DHT22;37554;50.362;7.568;2022-07-29T00:55:48;24.80;47.80
51476;DHT22;37554;50.362;7.568;2022-07-29T00:58:14;24.80;47.80
51476;DHT22;37554;50.362;7.568;2022-07-29T01:00:40;24.80;47.80
51476;DHT22;37554;50.362;7.568;2022-07-29T01:03:06;24.80;47.80
51476;DHT22;37554;50.362;7.568;2022-07-29T01:05:33;24.80;47.90
51476;DHT22;37554;50.362;7.568;2022-07-29T01:08:00;24.80;47.90
51476;DHT22;37554;50.362;7.568;2022-07-29T01:10:27;24.70;48.00
51476;DHT22;37554;50.362;7.568;2022-07-29T01:12:58;24.70;48.00
51476;DHT22;37554;50.362;7.568;2022-07-29T01:15:24;24.70;48.10
51476;DHT22;37554;50.362;7.568;2022-07-29T01:32:37;24.70;48.30
51476;DHT22;37554;50.362;7.568;2022-07-29T01:34:50;24.70;48.20
51476;DHT22;37554;50.362;7.568;2022-07-29T01:37:32;24.60;48.10
51476;DHT22;37554;50.362;7.568;2022-07-29T01:40:02;24.60;48.10
51476;DHT22;37554;50.362;7.568;2022-07-29T01:42:48;24.60;47.90
51476;DHT22;37554;50.362;7.568;2022-07-29T01:47:49;24.60;47.60
51476;DHT22;37554;50.362;7.568;2022-07-29T01:50:20;24.60;47.50
51476;DHT22;37554;50.362;7.568;2022-07-29T01:52:57;24.60;47.50
51476;DHT22;37554;50.362;7.568;2022-07-29T01:55:29;24.50;47.40
51476;DHT22;37554;50.362;7.568;2022-07-29T01:57:56;24.50;47.50
51476;DHT22;37554;50.362;7.568;2022-07-29T02:00:23;24.50;47.70
51476;DHT22;37554;50.362;7.568;2022-07-29T02:02:50;24.50;47.60
51476;DHT22;37554;50.362;7.568;2022-07-29T02:05:19;24.50;47.80
51476;DHT22;37554;50.362;7.568;2022-07-29T02:07:46;24.40;47.80
51476;DHT22;37554;50.362;7.568;2022-07-29T02:10:13;24.50;47.80
51476;DHT22;37554;50.362;7.568;2022-07-29T02:12:40;24.40;47.70
51476;DHT22;37554;50.362;7.568;2022-07-29T02:15:08;24.40;47.70
51476;DHT22;37554;50.362;7.568;2022-07-29T02:17:45;24.40;47.70
51476;DHT22;37554;50.362;7.568;2022-07-29T02:20:14;24.40;47.80
51476;DHT22;37554;50.362;7.568;2022-07-29T02:22:42;24.40;47.80
51476;DHT22;37554;50.362;7.568;2022-07-29T02:25:10;24.40;47.90
51476;DHT22;37554;50.362;7.568;2022-07-29T02:27:37;24.40;47.90
51476;DHT22;37554;50.362;7.568;2022-07-29T02:30:06;24.30;47.80
51476;DHT22;37554;50.362;7.568;2022-07-29T02:32:34;24.30;47.80
51476;DHT22;37554;50.362;7.568;2022-07-29T02:35:02;24.30;47.70
51476;DHT22;37554;50.362;7.568;2022-07-29T02:37:29;24.30;47.70
51476;DHT22;37554;50.362;7.568;2022-07-29T02:39:55;24.30;47.60
51476;DHT22;37554;50.362;7.568;2022-07-29T02:42:23;24.30;47.60
51476;DHT22;37554;50.362;7.568;2022-07-29T02:44:49;24.20;47.60
51476;DHT22;37554;50.362;7.568;2022-07-29T02:49:57;24.20;47.70
51476;DHT22;37554;50.362;7.568;2022-07-29T02:52:26;24.20;47.70
51476;DHT22;37554;50.362;7.568;2022-07-29T02:55:06;24.10;47.70
51476;DHT22;37554;50.362;7.568;2022-07-29T02:57:42;24.10;47.70
51476;DHT22;37554;50.362;7.568;2022-07-29T03:00:09;24.10;47.70
51476;DHT22;37554;50.362;7.568;2022-07-29T03:02:45;24.10;47.70
51476;DHT22;37554;50.362;7.568;2022-07-29T03:05:19;24.10;47.80
51476;DHT22;37554;50.362;7.568;2022-07-29T03:07:50;24.10;47.90
51476;DHT22;37554;50.362;7.568;2022-07-29T03:10:17;24.10;48.00
51476;DHT22;37554;50.362;7.568;2022-07-29T03:12:43;24.10;48.00
51476;DHT22;37554;50.362;7.568;2022-07-29T03:15:10;24.00;48.10
51476;DHT22;37554;50.362;7.568;2022-07-29T03:17:37;24.10;48.20
51476;DHT22;37554;50.362;7.568;2022-07-29T03:20:06;24.00;48.20
51476;DHT22;37554;50.362;7.568;2022-07-29T03:22:32;24.00;48.30
51476;DHT22;37554;50.362;7.568;2022-07-29T03:24:57;24.00;48.40
51476;DHT22;37554;50.362;7.568;2022-07-29T03:27:23;23.90;48.40
51476;DHT22;37554;50.362;7.568;2022-07-29T03:29:49;23.90;48.40
51476;DHT22;37554;50.362;7.568;2022-07-29T03:32:14;23.90;48.50
51476;DHT22;37554;50.362;7.568;2022-07-29T03:34:40;23.90;48.60
51476;DHT22;37554;50.362;7.568;2022-07-29T03:37:06;23.90;48.60
51476;DHT22;37554;50.362;7.568;2022-07-29T03:39:36;23.90;48.70
51476;DHT22;37554;50.362;7.568;2022-07-29T03:42:05;23.80;48.80
51476;DHT22;37554;50.362;7.568;2022-07-29T03:44:32;23.80;48.80
51476;DHT22;37554;50.362;7.568;2022-07-29T03:46:59;23.80;48.90
51476;DHT22;37554;50.362;7.568;2022-07-29T03:49:27;23.80;48.90
51476;DHT22;37554;50.362;7.568;2022-07-29T03:51:53;23.80;48.90
51476;DHT22;37554;50.362;7.568;2022-07-29T03:54:19;23.70;48.90
51476;DHT22;37554;50.362;7.568;2022-07-29T03:56:46;23.70;49.00
51476;DHT22;37554;50.362;7.568;2022-07-29T03:59:15;23.70;49.00
51476;DHT22;37554;50.362;7.568;2022-07-29T04:01:42;23.70;49.10
51476;DHT22;37554;50.362;7.568;2022-07-29T04:04:07;23.70;49.10
51476;DHT22;37554;50.362;7.568;2022-07-29T04:06:41;23.70;49.20
51476;DHT22;37554;50.362;7.568;2022-07-29T04:09:10;23.70;49.30
51476;DHT22;37554;50.362;7.568;2022-07-29T04:11:38;23.60;49.20
51476;DHT22;37554;50.362;7.568;2022-07-29T04:14:04;23.60;49.30
51476;DHT22;37554;50.362;7.568;2022-07-29T04:16:29;23.60;49.40
51476;DHT22;37554;50.362;7.568;2022-07-29T04:18:55;23.60;49.40
51476;DHT22;37554;50.362;7.568;2022-07-29T04:21:21;23.50;49.40
51476;DHT22;37554;50.362;7.568;2022-07-29T04:23:47;23.50;49.40
51476;DHT22;37554;50.362;7.568;2022-07-29T04:26:16;23.50;49.40
51476;DHT22;37554;50.362;7.568;2022-07-29T04:28:41;23.50;49.40
51476;DHT22;37554;50.362;7.568;2022-07-29T04:31:08;23.50;49.50
51476;DHT22;37554;50.362;7.568;2022-07-29T04:33:34;23.50;49.50
51476;DHT22;37554;50.362;7.568;2022-07-29T04:35:59;23.50;49.60
51476;DHT22;37554;50.362;7.568;2022-07-29T04:38:25;23.50;49.60
51476;DHT22;37554;50.362;7.568;2022-07-29T04:40:50;23.50;49.70
51476;DHT22;37554;50.362;7.568;2022-07-29T04:43:16;23.50;49.70
51476;DHT22;37554;50.362;7.568;2022-07-29T04:45:42;23.60;49.70
51476;DHT22;37554;50.362;7.568;2022-07-29T04:48:08;23.60;49.70
51476;DHT22;37554;50.362;7.568;2022-07-29T04:50:33;23.60;49.70
51476;DHT22;37554;50.362;7.568;2022-07-29T04:52:59;23.60;49.80
51476;DHT22;37554;50.362;7.568;2022-07-29T04:55:25;23.60;49.80
51476;DHT22;37554;50.362;7.568;2022-07-29T04:57:53;23.60;49.80
51476;DHT22;37554;50.362;7.568;2022-07-29T05:00:19;23.70;49.90
51476;DHT22;37554;50.362;7.568;2022-07-29T05:02:44;23.70;49.90
51476;DHT22;37554;50.362;7.568;2022-07-29T05:05:10;23.70;49.90
51476;DHT22;37554;50.362;7.568;2022-07-29T05:07:36;23.70;49.90
51476;DHT22;37554;50.362;7.568;2022-07-29T05:10:02;23.70;50.00
51476;DHT22;37554;50.362;7.568;2022-07-29T05:12:27;23.70;50.00
51476;DHT22;37554;50.362;7.568;2022-07-29T05:14:53;23.70;50.00
51476;DHT22;37554;50.362;7.568;2022-07-29T05:17:19;23.80;50.20
51476;DHT22;37554;50.362;7.568;2022-07-29T05:19:44;23.80;50.10
51476;DHT22;37554;50.362;7.568;2022-07-29T05:22:10;23.80;50.10
51476;DHT22;37554;50.362;7.568;2022-07-29T05:24:36;23.80;50.00
51476;DHT22;37554;50.362;7.568;2022-07-29T05:27:01;23.90;50.10
51476;DHT22;37554;50.362;7.568;2022-07-29T05:29:27;23.90;50.00
51476;DHT22;37554;50.362;7.568;2022-07-29T05:31:52;23.90;50.00
51476;DHT22;37554;50.362;7.568;2022-07-29T05:34:19;23.90;49.90
51476;DHT22;37554;50.362;7.568;2022-07-29T05:36:45;24.00;50.00
51476;DHT22;37554;50.362;7.568;2022-07-29T05:39:11;24.10;49.90
51476;DHT22;37554;50.362;7.568;2022-07-29T05:41:38;24.10;49.80
51476;DHT22;37554;50.362;7.568;2022-07-29T05:44:04;24.10;49.80
51476;DHT22;37554;50.362;7.568;2022-07-29T05:46:29;24.10;49.80
51476;DHT22;37554;50.362;7.568;2022-07-29T05:48:55;24.10;49.70
51476;DHT22;37554;50.362;7.568;2022-07-29T05:51:21;24.10;49.70
51476;DHT22;37554;50.362;7.568;2022-07-29T05:53:47;24.20;49.70
51476;DHT22;37554;50.362;7.568;2022-07-29T05:56:13;24.20;49.70
51476;DHT22;37554;50.362;7.568;2022-07-29T05:58:38;24.20;49.70
51476;DHT22;37554;50.362;7.568;2022-07-29T06:01:04;24.20;49.90
51476;DHT22;37554;50.362;7.568;2022-07-29T06:03:30;24.00;50.00
51476;DHT22;37554;50.362;7.568;2022-07-29T06:05:55;23.80;50.60
51476;DHT22;37554;50.362;7.568;2022-07-29T06:08:21;23.70;51.10
51476;DHT22;37554;50.362;7.568;2022-07-29T06:10:47;23.70;51.30
51476;DHT22;37554;50.362;7.568;2022-07-29T06:13:12;23.70;51.30
51476;DHT22;37554;50.362;7.568;2022-07-29T06:15:38;23.70;51.40
51476;DHT22;37554;50.362;7.568;2022-07-29T06:18:04;23.60;51.40
51476;DHT22;37554;50.362;7.568;2022-07-29T06:20:32;23.60;51.30
51476;DHT22;37554;50.362;7.568;2022-07-29T06:22:58;23.60;51.20
51476;DHT22;37554;50.362;7.568;2022-07-29T06:25:24;23.60;51.10
51476;DHT22;37554;50.362;7.568;2022-07-29T06:27:50;23.50;51.10
51476;DHT22;37554;50.362;7.568;2022-07-29T06:30:16;23.50;50.90
51476;DHT22;37554;50.362;7.568;2022-07-29T06:32:41;23.50;51.00
51476;DHT22;37554;50.362;7.568;2022-07-29T06:35:07;23.50;50.80
51476;DHT22;37554;50.362;7.568;2022-07-29T06:37:33;23.50;50.90
51476;DHT22;37554;50.362;7.568;2022-07-29T06:39:58;23.40;50.80
51476;DHT22;37554;50.362;7.568;2022-07-29T06:42:43;23.40;51.00
51476;DHT22;37554;50.362;7.568;2022-07-29T06:45:10;23.40;51.20
51476;DHT22;37554;50.362;7.568;2022-07-29T06:47:35;23.30;50.90
51476;DHT22;37554;50.362;7.568;2022-07-29T06:50:01;23.30;51.20
51476;DHT22;37554;50.362;7.568;2022-07-29T06:52:27;23.30;51.10
51476;DHT22;37554;50.362;7.568;2022-07-29T06:54:53;23.30;51.10
51476;DHT22;37554;50.362;7.568;2022-07-29T06:57:20;23.30;51.20
51476;DHT22;37554;50.362;7.568;2022-07-29T06:59:46;23.20;51.20
51476;DHT22;37554;50.362;7.568;2022-07-29T07:02:12;23.20;51.40
51476;DHT22;37554;50.362;7.568;2022-07-29T07:04:38;23.20;51.50
51476;DHT22;37554;50.362;7.568;2022-07-29T07:07:03;23.20;51.40
51476;DHT22;37554;50.362;7.568;2022-07-29T07:09:29;23.20;51.40
51476;DHT22;37554;50.362;7.568;2022-07-29T07:11:55;23.20;51.30
51476;DHT22;37554;50.362;7.568;2022-07-29T07:14:20;23.30;51.40
51476;DHT22;37554;50.362;7.568;2022-07-29T07:16:46;23.40;51.20
51476;DHT22;37554;50.362;7.568;2022-07-29T07:19:11;23.40;51.10
51476;DHT22;37554;50.362;7.568;2022-07-29T07:21:37;23.50;50.90
51476;DHT22;37554;50.362;7.568;2022-07-29T07:24:03;23.50;50.80
51476;DHT22;37554;50.362;7.568;2022-07-29T07:26:29;23.60;50.90
51476;DHT22;37554;50.362;7.568;2022-07-29T07:28:54;23.70;50.70
51476;DHT22;37554;50.362;7.568;2022-07-29T07:31:20;23.70;50.30
51476;DHT22;37554;50.362;7.568;2022-07-29T07:33:45;23.70;50.10
51476;DHT22;37554;50.362;7.568;2022-07-29T07:36:11;23.80;50.00
51476;DHT22;37554;50.362;7.568;2022-07-29T07:38:37;24.00;49.80
51476;DHT22;37554;50.362;7.568;2022-07-29T07:41:03;24.20;49.50
51476;DHT22;37554;50.362;7.568;2022-07-29T07:43:28;24.40;49.30
51476;DHT22;37554;50.362;7.568;2022-07-29T07:45:54;24.50;48.60
51476;DHT22;37554;50.362;7.568;2022-07-29T07:48:20;24.70;48.40
51476;DHT22;37554;50.362;7.568;2022-07-29T07:50:45;24.90;48.10
51476;DHT22;37554;50.362;7.568;2022-07-29T07:53:11;24.90;47.80
51476;DHT22;37554;50.362;7.568;2022-07-29T07:55:41;25.00;47.70
51476;DHT22;37554;50.362;7.568;2022-07-29T07:58:08;25.00;47.60
51476;DHT22;37554;50.362;7.568;2022-07-29T08:00:34;25.00;47.50
51476;DHT22;37554;50.362;7.568;2022-07-29T08:02:59;25.00;47.60
51476;DHT22;37554;50.362;7.568;2022-07-29T08:05:25;25.00;47.80
51476;DHT22;37554;50.362;7.568;2022-07-29T08:07:51;25.00;47.70
51476;DHT22;37554;50.362;7.568;2022-07-29T08:10:17;25.00;47.20
51476;DHT22;37554;50.362;7.568;2022-07-29T08:13:08;24.90;47.30
51476;DHT22;37554;50.362;7.568;2022-07-29T08:15:34;25.00;47.20
51476;DHT22;37554;50.362;7.568;2022-07-29T08:18:01;25.00;47.50
51476;DHT22;37554;50.362;7.568;2022-07-29T08:20:26;25.10;47.50
51476;DHT22;37554;50.362;7.568;2022-07-29T08:22:52;25.20;47.40
51476;DHT22;37554;50.362;7.568;2022-07-29T08:25:19;25.40;47.40
51476;DHT22;37554;50.362;7.568;2022-07-29T08:27:46;25.50;46.80
51476;DHT22;37554;50.362;7.568;2022-07-29T08:30:12;25.50;46.50
51476;DHT22;37554;50.362;7.568;2022-07-29T08:32:38;25.60;46.40
51476;DHT22;37554;50.362;7.568;2022-07-29T08:35:04;25.70;46.50
51476;DHT22;37554;50.362;7.568;2022-07-29T08:37:30;25.80;46.70
51476;DHT22;37554;50.362;7.568;2022-07-29T08:39:55;25.90;46.30
51476;DHT22;37554;50.362;7.568;2022-07-29T08:42:21;26.00;46.20
51476;DHT22;37554;50.362;7.568;2022-07-29T08:44:47;26.20;46.30
51476;DHT22;37554;50.362;7.568;2022-07-29T08:47:16;26.30;46.20
51476;DHT22;37554;50.362;7.568;2022-07-29T08:49:42;26.30;45.60
51476;DHT22;37554;50.362;7.568;2022-07-29T08:52:10;26.50;45.70
51476;DHT22;37554;50.362;7.568;2022-07-29T08:54:38;26.60;45.10
51476;DHT22;37554;50.362;7.568;2022-07-29T08:57:04;26.70;45.40
51476;DHT22;37554;50.362;7.568;2022-07-29T08:59:30;26.80;45.10
51476;DHT22;37554;50.362;7.568;2022-07-29T09:01:59;26.90;45.00
51476;DHT22;37554;50.362;7.568;2022-07-29T09:04:29;26.90;44.20
51476;DHT22;37554;50.362;7.568;2022-07-29T09:06:57;26.90;44.40
51476;DHT22;37554;50.362;7.568;2022-07-29T09:09:25;26.90;44.50
51476;DHT22;37554;50.362;7.568;2022-07-29T09:11:51;27.00;44.70
51476;DHT22;37554;50.362;7.568;2022-07-29T09:14:18;27.20;44.30
51476;DHT22;37554;50.362;7.568;2022-07-29T09:16:55;27.30;44.10
51476;DHT22;37554;50.362;7.568;2022-07-29T09:19:25;27.40;43.80
51476;DHT22;37554;50.362;7.568;2022-07-29T09:21:51;27.60;44.00
51476;DHT22;37554;50.362;7.568;2022-07-29T09:24:23;27.70;43.90
51476;DHT22;37554;50.362;7.568;2022-07-29T09:26:49;27.80;43.80
51476;DHT22;37554;50.362;7.568;2022-07-29T09:29:20;27.90;43.70
51476;DHT22;37554;50.362;7.568;2022-07-29T09:31:49;27.90;43.50
51476;DHT22;37554;50.362;7.568;2022-07-29T09:34:16;28.00;43.30
51476;DHT22;37554;50.362;7.568;2022-07-29T09:36:44;28.00;43.10
51476;DHT22;37554;50.362;7.568;2022-07-29T09:39:10;28.00;42.80
51476;DHT22;37554;50.362;7.568;2022-07-29T09:41:49;28.00;42.60
51476;DHT22;37554;50.362;7.568;2022-07-29T09:44:15;28.00;42.10
51476;DHT22;37554;50.362;7.568;2022-07-29T09:47:00;28.10;42.60
51476;DHT22;37554;50.362;7.568;2022-07-29T09:49:33;28.20;42.40
51476;DHT22;37554;50.362;7.568;2022-07-29T09:52:05;28.30;42.00
51476;DHT22;37554;50.362;7.568;2022-07-29T09:54:31;28.20;41.40
51476;DHT22;37554;50.362;7.568;2022-07-29T09:57:02;28.30;41.70
51476;DHT22;37554;50.362;7.568;2022-07-29T09:59:29;28.20;41.80
51476;DHT22;37554;50.362;7.568;2022-07-29T10:01:55;28.00;41.60
51476;DHT22;37554;50.362;7.568;2022-07-29T10:04:21;28.00;41.50
51476;DHT22;37554;50.362;7.568;2022-07-29T10:07:00;28.10;41.70
51476;DHT22;37554;50.362;7.568;2022-07-29T10:09:26;28.20;41.70
51476;DHT22;37554;50.362;7.568;2022-07-29T10:12:12;28.20;41.70
51476;DHT22;37554;50.362;7.568;2022-07-29T10:14:40;28.20;41.70
51476;DHT22;37554;50.362;7.568;2022-07-29T10:17:09;28.30;41.70
51476;DHT22;37554;50.362;7.568;2022-07-29T10:19:36;28.50;41.70
51476;DHT22;37554;50.362;7.568;2022-07-29T10:22:05;28.60;41.60
51476;DHT22;37554;50.362;7.568;2022-07-29T10:24:32;28.70;41.60
51476;DHT22;37554;50.362;7.568;2022-07-29T10:27:00;29.00;41.70
51476;DHT22;37554;50.362;7.568;2022-07-29T10:29:26;29.30;41.70
51476;DHT22;37554;50.362;7.568;2022-07-29T10:31:58;29.40;41.20
51476;DHT22;37554;50.362;7.568;2022-07-29T10:43:20;29.60;40.30
51476;DHT22;37554;50.362;7.568;2022-07-29T10:45:48;29.50;40.40
51476;DHT22;37554;50.362;7.568;2022-07-29T10:48:15;29.40;40.20
51476;DHT22;37554;50.362;7.568;2022-07-29T10:51:01;29.10;40.50
51476;DHT22;37554;50.362;7.568;2022-07-29T10:53:50;29.20;41.00
51476;DHT22;37554;50.362;7.568;2022-07-29T10:56:29;29.60;40.70
51476;DHT22;37554;50.362;7.568;2022-07-29T11:01:49;30.10;40.40
51476;DHT22;37554;50.362;7.568;2022-07-29T11:04:16;30.40;40.20
51476;DHT22;37554;50.362;7.568;2022-07-29T11:09:26;31.00;38.80
51476;DHT22;37554;50.362;7.568;2022-07-29T11:11:52;31.00;38.70
51476;DHT22;37554;50.362;7.568;2022-07-29T11:14:18;31.10;38.60
51476;DHT22;37554;50.362;7.568;2022-07-29T11:17:05;31.30;38.30
51476;DHT22;37554;50.362;7.568;2022-07-29T11:19:31;32.10;38.30
51476;DHT22;37554;50.362;7.568;2022-07-29T11:21:57;32.90;37.60
51476;DHT22;37554;50.362;7.568;2022-07-29T11:24:26;33.40;36.60
51476;DHT22;37554;50.362;7.568;2022-07-29T11:27:17;33.50;36.10
51476;DHT22;37554;50.362;7.568;2022-07-29T11:29:56;33.00;35.60
51476;DHT22;37554;50.362;7.568;2022-07-29T11:32:24;32.60;36.40
51476;DHT22;37554;50.362;7.568;2022-07-29T11:37:37;33.40;36.30
51476;DHT22;37554;50.362;7.568;2022-07-29T11:47:41;31.90;37.00
51476;DHT22;37554;50.362;7.568;2022-07-29T11:50:14;32.10;37.10
51476;DHT22;37554;50.362;7.568;2022-07-29T11:52:46;32.60;37.20
51476;DHT22;37554;50.362;7.568;2022-07-29T11:55:18;33.30;36.70
51476;DHT22;37554;50.362;7.568;2022-07-29T11:57:52;33.00;36.20
51476;DHT22;37554;50.362;7.568;2022-07-29T12:02:56;32.10;36.30
51476;DHT22;37554;50.362;7.568;2022-07-29T12:05:40;31.90;36.90
51476;DHT22;37554;50.362;7.568;2022-07-29T12:08:10;31.70;37.70
51476;DHT22;37554;50.362;7.568;2022-07-29T12:10:37;31.50;38.40
51476;DHT22;37554;50.362;7.568;2022-07-29T12:13:03;31.30;38.10
51476;DHT22;37554;50.362;7.568;2022-07-29T12:15:29;31.60;38.30
51476;DHT22;37554;50.362;7.568;2022-07-29T12:17:55;31.90;38.10
51476;DHT22;37554;50.362;7.568;2022-07-29T12:20:26;32.00;38.00
51476;DHT22;37554;50.362;7.568;2022-07-29T12:22:52;31.90;38.10
51476;DHT22;37554;50.362;7.568;2022-07-29T12:25:19;31.90;38.10
51476;DHT22;37554;50.362;7.568;2022-07-29T12:27:45;32.00;38.10
51476;DHT22;37554;50.362;7.568;2022-07-29T12:30:15;32.00;38.00
51476;DHT22;37554;50.362;7.568;2022-07-29T12:32:43;32.10;38.00
51476;DHT22;37554;50.362;7.568;2022-07-29T12:37:38;32.30;37.80
51476;DHT22;37554;50.362;7.568;2022-07-29T12:40:06;32.50;37.80
51476;DHT22;37554;50.362;7.568;2022-07-29T12:42:32;32.70;37.60
51476;DHT22;37554;50.362;7.568;2022-07-29T12:44:58;32.90;37.40
51476;DHT22;37554;50.362;7.568;2022-07-29T12:47:24;33.10;37.40
51476;DHT22;37554;50.362;7.568;2022-07-29T12:49:51;33.30;37.20
51476;DHT22;37554;50.362;7.568;2022-07-29T12:52:34;33.40;37.00
51476;DHT22;37554;50.362;7.568;2022-07-29T12:55:00;33.60;37.00
51476;DHT22;37554;50.362;7.568;2022-07-29T12:57:26;33.80;36.80
51476;DHT22;37554;50.362;7.568;2022-07-29T13:00:22;33.90;36.70
51476;DHT22;37554;50.362;7.568;2022-07-29T13:02:55;34.20;36.40
51476;DHT22;37554;50.362;7.568;2022-07-29T13:05:20;34.40;36.30
51476;DHT22;37554;50.362;7.568;2022-07-29T13:07:46;34.60;36.30
51476;DHT22;37554;50.362;7.568;2022-07-29T13:10:15;34.80;36.00
51476;DHT22;37554;50.362;7.568;2022-07-29T13:13:07;35.10;35.80
51476;DHT22;37554;50.362;7.568;2022-07-29T13:15:35;35.40;35.00
51476;DHT22;37554;50.362;7.568;2022-07-29T13:18:01;35.60;35.10
51476;DHT22;37554;50.362;7.568;2022-07-29T13:20:29;35.90;35.00
51476;DHT22;37554;50.362;7.568;2022-07-29T13:23:00;36.10;34.80
51476;DHT22;37554;50.362;7.568;2022-07-29T13:25:30;36.30;34.60
51476;DHT22;37554;50.362;7.568;2022-07-29T13:27:59;36.60;34.30
51476;DHT22;37554;50.362;7.568;2022-07-29T13:30:25;36.80;34.00
51476;DHT22;37554;50.362;7.568;2022-07-29T13:32:52;37.00;33.90
51476;DHT22;37554;50.362;7.568;2022-07-29T13:35:18;37.20;33.90
51476;DHT22;37554;50.362;7.568;2022-07-29T13:37:44;37.30;33.70
51476;DHT22;37554;50.362;7.568;2022-07-29T13:40:11;37.50;33.50
51476;DHT22;37554;50.362;7.568;2022-07-29T13:42:37;37.30;33.00
51476;DHT22;37554;50.362;7.568;2022-07-29T13:45:03;36.30;32.70
51476;DHT22;37554;50.362;7.568;2022-07-29T13:47:29;35.70;33.40
51476;DHT22;37554;50.362;7.568;2022-07-29T13:49:55;35.30;33.60
51476;DHT22;37554;50.362;7.568;2022-07-29T13:52:21;35.00;33.90
51476;DHT22;37554;50.362;7.568;2022-07-29T13:54:46;34.80;34.10
51476;DHT22;37554;50.362;7.568;2022-07-29T13:57:13;34.80;34.50
51476;DHT22;37554;50.362;7.568;2022-07-29T13:59:42;34.60;34.60
51476;DHT22;37554;50.362;7.568;2022-07-29T14:02:10;34.30;34.60
51476;DHT22;37554;50.362;7.568;2022-07-29T14:04:36;34.00;34.70
51476;DHT22;37554;50.362;7.568;2022-07-29T14:07:02;33.90;34.90
51476;DHT22;37554;50.362;7.568;2022-07-29T14:09:28;33.80;35.10
51476;DHT22;37554;50.362;7.568;2022-07-29T14:11:54;33.60;35.20
51476;DHT22;37554;50.362;7.568;2022-07-29T14:14:20;33.60;35.40
51476;DHT22;37554;50.362;7.568;2022-07-29T14:16:46;33.50;35.40
51476;DHT22;37554;50.362;7.568;2022-07-29T14:19:12;33.40;35.30
51476;DHT22;37554;50.362;7.568;2022-07-29T14:21:38;33.30;35.20
51476;DHT22;37554;50.362;7.568;2022-07-29T14:24:04;33.30;35.30
51476;DHT22;37554;50.362;7.568;2022-07-29T14:26:31;33.50;35.50
51476;DHT22;37554;50.362;7.568;2022-07-29T14:28:56;33.60;35.70
51476;DHT22;37554;50.362;7.568;2022-07-29T14:31:23;33.50;35.80
51476;DHT22;37554;50.362;7.568;2022-07-29T14:33:49;33.30;35.80
51476;DHT22;37554;50.362;7.568;2022-07-29T14:36:15;33.10;36.00
51476;DHT22;37554;50.362;7.568;2022-07-29T14:38:41;32.90;36.10
51476;DHT22;37554;50.362;7.568;2022-07-29T18:43:07;27.60;41.80
51476;DHT22;37554;50.362;7.568;2022-07-29T18:45:32;27.50;42.00
51476;DHT22;37554;50.362;7.568;2022-07-29T18:47:58;27.50;41.90
51476;DHT22;37554;50.362;7.568;2022-07-29T18:50:24;27.50;42.00
51476;DHT22;37554;50.362;7.568;2022-07-29T18:52:51;27.50;41.90
51476;DHT22;37554;50.362;7.568;2022-07-29T18:55:17;27.40;42.00
51476;DHT22;37554;50.362;7.568;2022-07-29T18:57:43;27.40;42.60
51476;DHT22;37554;50.362;7.568;2022-07-29T19:00:09;27.30;41.90
51476;DHT22;37554;50.362;7.568;2022-07-29T19:02:36;27.30;41.90
51476;DHT22;37554;50.362;7.568;2022-07-29T19:05:06;27.30;41.90
51476;DHT22;37554;50.362;7.568;2022-07-29T19:07:32;27.30;42.00
51476;DHT22;37554;50.362;7.568;2022-07-29T19:09:58;27.20;42.50
51476;DHT22;37554;50.362;7.568;2022-07-29T19:12:24;27.10;41.90
51476;DHT22;37554;50.362;7.568;2022-07-29T19:14:50;27.00;42.50
51476;DHT22;37554;50.362;7.568;2022-07-29T19:17:15;27.00;41.70
51476;DHT22;37554;50.362;7.568;2022-07-29T19:19:41;27.00;41.90
51476;DHT22;37554;50.362;7.568;2022-07-29T19:22:06;27.00;42.00
51476;DHT22;37554;50.362;7.568;2022-07-29T19:24:32;27.00;41.90
51476;DHT22;37554;50.362;7.568;2022-07-29T19:26:58;26.90;41.80
51476;DHT22;37554;50.362;7.568;2022-07-29T19:29:24;26.80;41.80
51476;DHT22;37554;50.362;7.568;2022-07-29T19:31:51;26.80;41.80
51476;DHT22;37554;50.362;7.568;2022-07-29T19:34:16;26.80;41.60
51476;DHT22;37554;50.362;7.568;2022-07-29T19:36:42;26.80;41.40
51476;DHT22;37554;50.362;7.568;2022-07-29T19:39:08;26.80;41.30
51476;DHT22;37554;50.362;7.568;2022-07-29T19:41:33;26.80;41.50
51476;DHT22;37554;50.362;7.568;2022-07-29T19:43:59;26.80;41.50
51476;DHT22;37554;50.362;7.568;2022-07-29T19:46:25;26.70;41.50
51476;DHT22;37554;50.362;7.568;2022-07-29T19:48:53;26.70;41.50
51476;DHT22;37554;50.362;7.568;2022-07-29T19:51:19;26.70;41.50
51476;DHT22;37554;50.362;7.568;2022-07-29T19:53:44;26.60;41.80
51476;DHT22;37554;50.362;7.568;2022-07-29T19:56:10;26.60;41.80
51476;DHT22;37554;50.362;7.568;2022-07-29T19:58:36;26.60;41.90
51476;DHT22;37554;50.362;7.568;2022-07-29T20:01:02;26.50;42.30
51476;DHT22;37554;50.362;7.568;2022-07-29T20:03:28;26.50;42.30
51476;DHT22;37554;50.362;7.568;2022-07-29T20:05:54;26.50;42.30
51476;DHT22;37554;50.362;7.568;2022-07-29T20:08:19;26.50;43.10
51476;DHT22;37554;50.362;7.568;2022-07-29T20:10:45;26.40;42.30
51476;DHT22;37554;50.362;7.568;2022-07-29T20:13:11;26.40;42.20
51476;DHT22;37554;50.362;7.568;2022-07-29T20:15:37;26.30;42.00
51476;DHT22;37554;50.362;7.568;2022-07-29T20:18:03;26.40;41.90
51476;DHT22;37554;50.362;7.568;2022-07-29T20:20:28;26.30;41.90
51476;DHT22;37554;50.362;7.568;2022-07-29T20:22:55;26.20;41.80
51476;DHT22;37554;50.362;7.568;2022-07-29T20:25:21;26.20;41.90